Time;durP1;ratioP1;P1;durP2;ratioP2;P2;SDS_P1;SDS_P2;PMS_P1;PMS_P2;Temp;Humidity;BMP_temperature;BMP_pressure;BME280_temperature;BME280_humidity;BME280_pressure;Samples;Min_cycle;Max_cycle;Signal;HPM_P1;HPM_P2
2022/03/16 00:00:00;;;;;;;;;;;;;;;;;;5017893;28;857;-68
2022/03/16 00:02:26;;;;;;;;;;;;;;;;;;5017717;28;1400;-68
2022/03/16 00:04:54;;;;;;;;;;;;;;;;;;5017766;28;957;-68
2022/03/16 00:07:22;;;;;;;;;;;;;;;;;;5017596;28;1154;-69
2022/03/16 00:09:48;;;;;;;;;;;;;;;;;;5017528;28;1975;-68
2022/03/16 00:12:14;;;;;;;;;;;;;;;;;;5017780;28;1384;-68
2022/03/16 00:14:41;;;;;;;;;;;;;;;;;;5017782;28;1087;-68
2022/03/16 00:17:07;;;;;;;;;;;;;;;;;;5017487;28;976;-68
2022/03/16 00:19:34;;;;;;;;;;;;;;;;;;5017785;28;1163;-68
2022/03/16 00:22:00;;;;;;;;;;;;;;;;;;5017821;28;1306;-68
2022/03/16 00:24:28;;;;;;;;;;;;;;;;;;5017678;28;1091;-69
2022/03/16 00:26:54;;;;;;;;;;;;;;;;;;5017239;28;826;-69
2022/03/16 00:29:20;;;;;;;;;;;;;;;;;;5016402;28;1977;-68
2022/03/16 00:31:47;;;;;;;;;;;;;;;;;;5016074;28;1325;-68
2022/03/16 00:34:13;;;;;;;;;;;;;;;;;;5017589;28;853;-68
2022/03/16 00:36:40;;;;;;;;;;;;;;;;;;5015976;28;1653;-68
2022/03/16 00:39:06;;;;;;;;;;;;;;;;;;5016241;28;1268;-69
2022/03/16 00:41:36;;;;;;;;;;;;;;;;;;5017535;28;1322;-68
2022/03/16 00:44:03;;;;;;;;;;;;;;;;;;5017496;28;751;-68
2022/03/16 00:46:29;;;;;;;;;;;;;;;;;;5017182;28;964;-68
2022/03/16 00:48:55;;;;;;;;;;;;;;;;;;5017492;28;976;-68
2022/03/16 00:51:22;;;;;;;;;;;;;;;;;;5016078;28;1988;-68
2022/03/16 00:53:50;;;;;;;;;;;;;;;;;;5017412;28;818;-68
2022/03/16 00:56:16;;;;;;;;;;;;;;;;;;5015785;28;1153;-68
2022/03/16 00:58:45;;;;;;;;;;;;;;;;;;5016055;28;1187;-68
2022/03/16 01:01:11;;;;;;;;;;;;;;;;;;5017184;28;1411;-68
2022/03/16 01:03:40;;;;;;;;;;;;;;;;;;5014212;28;1149;-69
2022/03/16 01:06:06;;;;;;;;;;;;;;;;;;5013959;28;1079;-68
2022/03/16 01:08:32;;;;;;;;;;;;;;;;;;5014103;28;1083;-69
2022/03/16 01:10:58;;;;;;;;;;;;;;;;;;5012719;28;1919;-69
2022/03/16 01:13:25;;;;;;;;;;;;;;;;;;5012773;28;1262;-69
2022/03/16 01:15:52;;;;;;;;;;;;;;;;;;5013946;28;1146;-68
2022/03/16 01:18:19;;;;;;;;;;;;;;;;;;5012604;28;1207;-70
2022/03/16 01:20:47;;;;;;;;;;;;;;;;;;5012784;28;1337;-70
2022/03/16 01:23:13;;;;;;;;;;;;;;;;;;5014027;28;949;-70
2022/03/16 01:25:39;;;;;;;;;;;;;;;;;;5013770;28;1142;-70
2022/03/16 01:28:05;;;;;;;;;;;;;;;;;;5013459;28;865;-70
2022/03/16 01:30:32;;;;;;;;;;;;;;;;;;5009970;28;1910;-70
2022/03/16 01:32:59;;;;;;;;;;;;;;;;;;5012393;28;1185;-70
2022/03/16 01:35:25;;;;;;;;;;;;;;;;;;5012424;28;1538;-68
2022/03/16 01:37:52;;;;;;;;;;;;;;;;;;5012000;28;949;-69
2022/03/16 01:40:18;;;;;;;;;;;;;;;;;;5012389;28;1163;-69
2022/03/16 01:42:45;;;;;;;;;;;;;;;;;;5013398;28;1343;-69
2022/03/16 01:45:11;;;;;;;;;;;;;;;;;;5013506;28;871;-69
2022/03/16 01:47:37;;;;;;;;;;;;;;;;;;5011805;28;1107;-69
2022/03/16 01:50:06;;;;;;;;;;;;;;;;;;5013082;28;1914;-69
2022/03/16 01:52:32;;;;;;;;;;;;;;;;;;5012033;28;1326;-69
2022/03/16 01:55:02;;;;;;;;;;;;;;;;;;5011939;28;1068;-70
2022/03/16 01:57:29;;;;;;;;;;;;;;;;;;5011606;28;1196;-69
2022/03/16 01:59:55;;;;;;;;;;;;;;;;;;5011806;28;1196;-69
2022/03/16 02:02:21;;;;;;;;;;;;;;;;;;5011571;28;1306;-70
2022/03/16 02:04:48;;;;;;;;;;;;;;;;;;5012036;28;1284;-69
2022/03/16 02:07:16;;;;;;;;;;;;;;;;;;5012866;28;889;-69
2022/03/16 02:09:42;;;;;;;;;;;;;;;;;;5012812;28;1923;-69
2022/03/16 02:12:11;;;;;;;;;;;;;;;;;;5012937;28;1364;-69
2022/03/16 02:14:37;;;;;;;;;;;;;;;;;;5012166;28;1127;-69
2022/03/16 02:17:04;;;;;;;;;;;;;;;;;;5012597;28;925;-69
2022/03/16 02:19:30;;;;;;;;;;;;;;;;;;5013067;28;1008;-69
2022/03/16 02:21:57;;;;;;;;;;;;;;;;;;5012995;28;1298;-69
2022/03/16 02:24:25;;;;;;;;;;;;;;;;;;5013074;28;989;-69
2022/03/16 02:26:51;;;;;;;;;;;;;;;;;;5012654;28;1119;-67
2022/03/16 02:29:17;;;;;;;;;;;;;;;;;;5012764;28;893;-67
2022/03/16 02:31:43;;;;;;;;;;;;;;;;;;5012385;28;1980;-68
2022/03/16 02:34:10;;;;;;;;;;;;;;;;;;5012612;28;882;-67
2022/03/16 02:36:36;;;;;;;;;;;;;;;;;;5012163;28;802;-68
2022/03/16 02:39:02;;;;;;;;;;;;;;;;;;5012535;28;1095;-68
2022/03/16 02:41:30;;;;;;;;;;;;;;;;;;5012414;28;1396;-70
2022/03/16 02:43:56;;;;;;;;;;;;;;;;;;5012524;28;834;-70
2022/03/16 02:46:23;;;;;;;;;;;;;;;;;;5011989;28;778;-68
2022/03/16 02:48:49;;;;;;;;;;;;;;;;;;5012267;28;1084;-70
2022/03/16 02:51:15;;;;;;;;;;;;;;;;;;5012145;28;1914;-69
2022/03/16 02:53:41;;;;;;;;;;;;;;;;;;5012171;28;1154;-70
2022/03/16 02:56:08;;;;;;;;;;;;;;;;;;5011777;28;980;-67
2022/03/16 02:58:35;;;;;;;;;;;;;;;;;;5011973;28;1237;-70
2022/03/16 03:01:01;;;;;;;;;;;;;;;;;;5011915;28;1374;-70
2022/03/16 03:03:28;;;;;;;;;;;;;;;;;;5012124;28;1031;-70
2022/03/16 03:05:54;;;;;;;;;;;;;;;;;;5011842;28;1122;-68
2022/03/16 03:08:20;;;;;;;;;;;;;;;;;;5011766;28;1142;-68
2022/03/16 03:10:48;;;;;;;;;;;;;;;;;;5011635;28;1914;-70
2022/03/16 03:13:14;;;;;;;;;;;;;;;;;;5012226;28;1162;-69
2022/03/16 03:15:42;;;;;;;;;;;;;;;;;;5011766;28;1083;-70
2022/03/16 03:18:08;;;;;;;;;;;;;;;;;;5011588;28;977;-68
2022/03/16 03:20:35;;;;;;;;;;;;;;;;;;5011675;28;1251;-68
2022/03/16 03:23:01;;;;;;;;;;;;;;;;;;5011746;28;1076;-69
2022/03/16 03:25:27;;;;;;;;;;;;;;;;;;5010962;28;1122;-70
2022/03/16 03:27:53;;;;;;;;;;;;;;;;;;5008947;28;2059;-68
2022/03/16 03:30:19;;;;;;;;;;;;;;;;;;5019050;28;1922;-68
2022/03/16 03:32:47;;;;;;;;;;;;;;;;;;5022757;28;1422;-68
2022/03/16 03:35:13;;;;;;;;;;;;;;;;;;4998421;28;1230;-67
2022/03/16 03:37:39;;;;;;;;;;;;;;;;;;5011239;28;1080;-69
2022/03/16 03:40:07;;;;;;;;;;;;;;;;;;5011521;28;806;-68
2022/03/16 03:42:33;;;;;;;;;;;;;;;;;;5011483;28;1414;-68
2022/03/16 03:44:59;;;;;;;;;;;;;;;;;;5011543;28;956;-68
2022/03/16 03:47:25;;;;;;;;;;;;;;;;;;5010933;28;1202;-68
2022/03/16 03:49:53;;;;;;;;;;;;;;;;;;5011896;28;1075;-70
2022/03/16 03:52:19;;;;;;;;;;;;;;;;;;5012884;28;1919;-67
2022/03/16 03:54:45;;;;;;;;;;;;;;;;;;5012641;28;794;-70
2022/03/16 03:57:11;;;;;;;;;;;;;;;;;;5012768;28;972;-70
2022/03/16 03:59:38;;;;;;;;;;;;;;;;;;5011534;28;1098;-68
2022/03/16 04:02:04;;;;;;;;;;;;;;;;;;5011410;28;1298;-68
2022/03/16 04:04:31;;;;;;;;;;;;;;;;;;5011400;28;1142;-68
2022/03/16 04:06:58;;;;;;;;;;;;;;;;;;5011156;28;925;-70
2022/03/16 04:09:24;;;;;;;;;;;;;;;;;;5011454;28;1067;-69
2022/03/16 04:11:50;;;;;;;;;;;;;;;;;;5011283;28;1923;-70
2022/03/16 04:14:17;;;;;;;;;;;;;;;;;;5011480;28;1060;-70
2022/03/16 04:16:43;;;;;;;;;;;;;;;;;;5010796;28;1032;-69
2022/03/16 04:19:09;;;;;;;;;;;;;;;;;;5011250;28;1119;-70
2022/03/16 04:21:35;;;;;;;;;;;;;;;;;;5011004;28;1301;-70
2022/03/16 04:24:03;;;;;;;;;;;;;;;;;;5011160;28;1180;-68
2022/03/16 04:26:29;;;;;;;;;;;;;;;;;;5010847;28;1075;-67
2022/03/16 04:28:55;;;;;;;;;;;;;;;;;;5011277;28;1083;-69
2022/03/16 04:31:22;;;;;;;;;;;;;;;;;;5010822;28;1906;-69
2022/03/16 04:33:48;;;;;;;;;;;;;;;;;;5011317;28;1035;-68
2022/03/16 04:36:14;;;;;;;;;;;;;;;;;;5011118;28;1095;-68
2022/03/16 04:38:40;;;;;;;;;;;;;;;;;;5014212;28;818;-68
2022/03/16 04:41:08;;;;;;;;;;;;;;;;;;5014852;28;1342;-69
2022/03/16 04:43:34;;;;;;;;;;;;;;;;;;5014564;28;873;-68
2022/03/16 04:46:01;;;;;;;;;;;;;;;;;;5014574;28;1099;-69
2022/03/16 04:48:27;;;;;;;;;;;;;;;;;;5014347;28;1079;-67
2022/03/16 04:50:53;;;;;;;;;;;;;;;;;;5014551;28;1914;-68
2022/03/16 04:53:19;;;;;;;;;;;;;;;;;;4996934;28;1953;-68
2022/03/16 04:55:45;;;;;;;;;;;;;;;;;;5014403;28;841;-66
2022/03/16 04:58:13;;;;;;;;;;;;;;;;;;5014413;28;1135;-68
2022/03/16 05:00:39;;;;;;;;;;;;;;;;;;5014017;28;1313;-69
2022/03/16 05:03:05;;;;;;;;;;;;;;;;;;5020041;28;1577;-69
2022/03/16 05:05:32;;;;;;;;;;;;;;;;;;5021654;28;1428;-69
2022/03/16 05:07:58;;;;;;;;;;;;;;;;;;5016118;28;1146;-69
2022/03/16 05:10:24;;;;;;;;;;;;;;;;;;5013782;28;1339;-69
2022/03/16 05:12:50;;;;;;;;;;;;;;;;;;5014921;28;1922;-69
2022/03/16 05:15:18;;;;;;;;;;;;;;;;;;4996286;28;1335;-69
2022/03/16 05:17:45;;;;;;;;;;;;;;;;;;5014201;28;1320;-69
2022/03/16 05:20:11;;;;;;;;;;;;;;;;;;5013550;28;1244;-69
2022/03/16 05:22:41;;;;;;;;;;;;;;;;;;5014109;28;1646;-69
2022/03/16 05:25:07;;;;;;;;;;;;;;;;;;5033580;28;901;-70
2022/03/16 05:27:34;;;;;;;;;;;;;;;;;;5033098;28;1622;-69
2022/03/16 05:30:00;;;;;;;;;;;;;;;;;;5033297;28;1568;-69
2022/03/16 05:32:27;;;;;;;;;;;;;;;;;;5033093;28;1906;-69
2022/03/16 05:34:53;;;;;;;;;;;;;;;;;;5016744;28;1773;-70
2022/03/16 05:37:19;;;;;;;;;;;;;;;;;;5027651;28;1646;-69
2022/03/16 05:39:46;;;;;;;;;;;;;;;;;;5022760;28;1690;-70
2022/03/16 05:42:12;;;;;;;;;;;;;;;;;;5013435;28;1376;-69
2022/03/16 05:44:38;;;;;;;;;;;;;;;;;;5013687;28;1091;-69
2022/03/16 05:47:05;;;;;;;;;;;;;;;;;;5013290;28;794;-70
2022/03/16 05:49:32;;;;;;;;;;;;;;;;;;5012954;28;1139;-68
2022/03/16 05:51:58;;;;;;;;;;;;;;;;;;5013337;28;1914;-70
2022/03/16 05:54:25;;;;;;;;;;;;;;;;;;5013072;28;1156;-71
2022/03/16 05:56:51;;;;;;;;;;;;;;;;;;5013291;28;866;-70
2022/03/16 05:59:17;;;;;;;;;;;;;;;;;;5013441;28;814;-69
2022/03/16 06:01:43;;;;;;;;;;;;;;;;;;5012540;28;1441;-70
2022/03/16 06:04:09;;;;;;;;;;;;;;;;;;5013050;28;1265;-69
2022/03/16 06:06:37;;;;;;;;;;;;;;;;;;5013011;28;790;-69
2022/03/16 06:09:04;;;;;;;;;;;;;;;;;;5013136;28;1137;-69
2022/03/16 06:11:30;;;;;;;;;;;;;;;;;;5012871;28;1902;-69
2022/03/16 06:13:56;;;;;;;;;;;;;;;;;;5013256;28;901;-69
2022/03/16 06:16:22;;;;;;;;;;;;;;;;;;5012712;28;1086;-69
2022/03/16 06:18:49;;;;;;;;;;;;;;;;;;5013174;28;866;-69
2022/03/16 06:21:15;;;;;;;;;;;;;;;;;;5012906;28;1331;-69
2022/03/16 06:23:42;;;;;;;;;;;;;;;;;;5012737;28;1140;-69
2022/03/16 06:26:09;;;;;;;;;;;;;;;;;;5012330;28;921;-68
2022/03/16 06:28:35;;;;;;;;;;;;;;;;;;5012774;28;1095;-68
2022/03/16 06:31:01;;;;;;;;;;;;;;;;;;5012534;28;1404;-70
2022/03/16 06:33:27;;;;;;;;;;;;;;;;;;5012437;28;1138;-68
2022/03/16 06:35:53;;;;;;;;;;;;;;;;;;5012457;28;1096;-70
2022/03/16 06:38:20;;;;;;;;;;;;;;;;;;5012063;28;960;-70
2022/03/16 06:40:47;;;;;;;;;;;;;;;;;;5011934;28;1661;-70
2022/03/16 06:43:13;;;;;;;;;;;;;;;;;;5012119;28;1244;-69
2022/03/16 06:45:39;;;;;;;;;;;;;;;;;;5012445;28;1236;-69
2022/03/16 06:48:06;;;;;;;;;;;;;;;;;;5012390;28;1142;-69
2022/03/16 06:50:32;;;;;;;;;;;;;;;;;;5012334;28;1373;-69
2022/03/16 06:52:58;;;;;;;;;;;;;;;;;;5012634;28;1918;-69
2022/03/16 06:55:26;;;;;;;;;;;;;;;;;;5012375;28;826;-69
2022/03/16 06:57:54;;;;;;;;;;;;;;;;;;5012357;28;901;-69
2022/03/16 07:00:20;;;;;;;;;;;;;;;;;;5012386;28;885;-69
2022/03/16 07:02:50;;;;;;;;;;;;;;;;;;4994724;28;2595;-69
2022/03/16 07:05:16;;;;;;;;;;;;;;;;;;5047066;22;3826;-67
2022/03/16 07:07:42;;;;;;;;;;;;;;;;;;5051469;28;810;-67
2022/03/16 07:10:09;;;;;;;;;;;;;;;;;;5051938;28;1079;-67
2022/03/16 07:12:35;;;;;;;;;;;;;;;;;;5052098;28;1899;-68
2022/03/16 07:15:03;;;;;;;;;;;;;;;;;;5052791;28;1381;-68
2022/03/16 07:17:29;;;;;;;;;;;;;;;;;;5052668;28;1095;-67
2022/03/16 07:19:55;;;;;;;;;;;;;;;;;;5052709;28;901;-66
2022/03/16 07:22:22;;;;;;;;;;;;;;;;;;5053456;28;1148;-66
2022/03/16 07:24:48;;;;;;;;;;;;;;;;;;5053831;28;1318;-65
2022/03/16 07:27:14;;;;;;;;;;;;;;;;;;5054126;28;1110;-66
2022/03/16 07:29:41;;;;;;;;;;;;;;;;;;5054460;28;903;-66
2022/03/16 07:32:09;;;;;;;;;;;;;;;;;;5054885;28;1979;-66
2022/03/16 07:34:36;;;;;;;;;;;;;;;;;;5054642;28;1402;-68
2022/03/16 07:37:02;;;;;;;;;;;;;;;;;;5054595;28;1526;-66
2022/03/16 07:39:28;;;;;;;;;;;;;;;;;;5034946;28;1014;-65
2022/03/16 07:41:55;;;;;;;;;;;;;;;;;;5055515;28;807;-66
2022/03/16 07:44:21;;;;;;;;;;;;;;;;;;5038574;28;1427;-67
2022/03/16 07:46:48;;;;;;;;;;;;;;;;;;5056351;28;999;-66
2022/03/16 07:49:17;;;;;;;;;;;;;;;;;;5056494;28;984;-65
2022/03/16 07:51:43;;;;;;;;;;;;;;;;;;5053840;28;1984;-66
2022/03/16 07:54:09;;;;;;;;;;;;;;;;;;5052291;28;1337;-66
2022/03/16 07:56:36;;;;;;;;;;;;;;;;;;5052256;28;1173;-67
2022/03/16 07:59:02;;;;;;;;;;;;;;;;;;5052908;28;806;-65
2022/03/16 08:01:28;;;;;;;;;;;;;;;;;;5053320;28;976;-66
2022/03/16 08:03:54;;;;;;;;;;;;;;;;;;5052815;28;976;-67
2022/03/16 08:06:22;;;;;;;;;;;;;;;;;;5053000;28;1427;-71
2022/03/16 08:08:48;;;;;;;;;;;;;;;;;;5052940;28;1202;-67
2022/03/16 08:11:14;;;;;;;;;;;;;;;;;;5054366;28;948;-68
2022/03/16 08:13:40;;;;;;;;;;;;;;;;;;5057318;28;1932;-69
2022/03/16 08:16:07;;;;;;;;;;;;;;;;;;5058148;28;1274;-67
2022/03/16 08:18:34;;;;;;;;;;;;;;;;;;5058681;28;1079;-68
2022/03/16 08:21:00;;;;;;;;;;;;;;;;;;5058377;28;944;-67
2022/03/16 08:23:28;;;;;;;;;;;;;;;;;;5058600;28;1163;-68
2022/03/16 08:25:55;;;;;;;;;;;;;;;;;;5058539;28;1361;-67
2022/03/16 08:28:21;;;;;;;;;;;;;;;;;;5040968;28;1106;-68
2022/03/16 08:30:47;;;;;;;;;;;;;;;;;;5059096;28;960;-68
2022/03/16 08:33:15;;;;;;;;;;;;;;;;;;5057061;28;1914;-68
2022/03/16 08:35:41;;;;;;;;;;;;;;;;;;5056247;28;1378;-67
2022/03/16 08:38:07;;;;;;;;;;;;;;;;;;5055563;28;1079;-68
2022/03/16 08:40:35;;;;;;;;;;;;;;;;;;5057568;28;1092;-68
2022/03/16 08:43:01;;;;;;;;;;;;;;;;;;5057551;28;790;-67
2022/03/16 08:45:28;;;;;;;;;;;;;;;;;;5057194;28;1276;-68
2022/03/16 08:47:54;;;;;;;;;;;;;;;;;;5058090;28;1087;-68
2022/03/16 08:50:21;;;;;;;;;;;;;;;;;;5056342;28;980;-66
2022/03/16 08:52:47;;;;;;;;;;;;;;;;;;5056155;28;1967;-66
2022/03/16 08:55:15;;;;;;;;;;;;;;;;;;5056012;28;1358;-67
2022/03/16 08:57:43;;;;;;;;;;;;;;;;;;5055736;28;1138;-67
2022/03/16 09:00:14;;;;;;;;;;;;;;;;;;5056134;28;893;-68
2022/03/16 09:02:40;;;;;;;;;;;;;;;;;;5055656;28;889;-67
2022/03/16 09:05:06;;;;;;;;;;;;;;;;;;5055670;28;1310;-67
2022/03/16 09:07:33;;;;;;;;;;;;;;;;;;5054954;28;770;-67
2022/03/16 09:09:59;;;;;;;;;;;;;;;;;;5055703;28;1039;-67
2022/03/16 09:12:25;;;;;;;;;;;;;;;;;;5055425;28;1977;-68
2022/03/16 09:14:53;;;;;;;;;;;;;;;;;;5037173;28;1275;-67
2022/03/16 09:17:20;;;;;;;;;;;;;;;;;;5054709;28;1062;-67
2022/03/16 09:19:46;;;;;;;;;;;;;;;;;;5055378;28;1067;-68
2022/03/16 09:22:12;;;;;;;;;;;;;;;;;;5055436;28;1167;-68
2022/03/16 09:24:39;;;;;;;;;;;;;;;;;;5052611;28;1363;-67
2022/03/16 09:27:05;;;;;;;;;;;;;;;;;;5054870;28;1074;-66
2022/03/16 09:29:31;;;;;;;;;;;;;;;;;;5050615;28;1676;-66
2022/03/16 09:31:59;;;;;;;;;;;;;;;;;;5055002;28;1130;-67
2022/03/16 09:34:25;;;;;;;;;;;;;;;;;;5054451;28;2044;-67
2022/03/16 09:36:51;;;;;;;;;;;;;;;;;;5054781;28;829;-67
2022/03/16 09:39:17;;;;;;;;;;;;;;;;;;5055063;28;1126;-67
2022/03/16 09:41:43;;;;;;;;;;;;;;;;;;5054751;28;1042;-68
2022/03/16 09:44:10;;;;;;;;;;;;;;;;;;5037065;28;1370;-67
2022/03/16 09:46:36;;;;;;;;;;;;;;;;;;5053430;28;1196;-68
2022/03/16 09:49:07;;;;;;;;;;;;;;;;;;5051559;28;1322;-67
2022/03/16 09:51:36;;;;;;;;;;;;;;;;;;5053837;28;1326;-68
2022/03/16 09:54:02;;;;;;;;;;;;;;;;;;5051185;28;1987;-67
2022/03/16 09:56:29;;;;;;;;;;;;;;;;;;5053708;28;1339;-67
2022/03/16 09:58:55;;;;;;;;;;;;;;;;;;5054230;28;1333;-68
2022/03/16 10:01:22;;;;;;;;;;;;;;;;;;5033453;28;1323;-68
2022/03/16 10:03:48;;;;;;;;;;;;;;;;;;5054921;28;1251;-65
2022/03/16 10:06:17;;;;;;;;;;;;;;;;;;5054123;28;1518;-65
2022/03/16 10:13:13;;;;;;;;;;;;;;;;;;5052591;28;1253;-68
2022/03/16 10:14:15;;;;;;;;;;;;;;;;;;5053344;28;1899;-66
2022/03/16 10:19:24;;;;;;;;;;;;;;;;;;5050525;28;1289;-66
2022/03/16 10:21:59;;;;;;;;;;;;;;;;;;5054171;28;1271;-68
2022/03/16 10:24:29;;;;;;;;;;;;;;;;;;5051305;28;1490;-68
2022/03/16 10:26:55;;;;;;;;;;;;;;;;;;5053358;28;1268;-67
2022/03/16 10:29:22;;;;;;;;;;;;;;;;;;5053640;28;1492;-68
2022/03/16 10:31:59;;;;;;;;;;;;;;;;;;5054365;28;1286;-67
2022/03/16 10:34:25;;;;;;;;;;;;;;;;;;5050251;28;1918;-67
2022/03/16 10:36:52;;;;;;;;;;;;;;;;;;5053148;28;1251;-68
2022/03/16 10:39:22;;;;;;;;;;;;;;;;;;5052819;28;1275;-65
2022/03/16 10:47:16;;;;;;;;;;;;;;;;;;5028083;28;1300;-65
2022/03/16 10:49:42;;;;;;;;;;;;;;;;;;5054032;28;1394;-65
2022/03/16 10:52:14;;;;;;;;;;;;;;;;;;5052915;28;1216;-66
2022/03/16 10:54:42;;;;;;;;;;;;;;;;;;5052115;28;1983;-68
2022/03/16 10:57:10;;;;;;;;;;;;;;;;;;5053670;28;1337;-65
2022/03/16 10:59:36;;;;;;;;;;;;;;;;;;5052803;28;1247;-65
2022/03/16 11:02:03;;;;;;;;;;;;;;;;;;5052923;28;1083;-64
2022/03/16 11:04:30;;;;;;;;;;;;;;;;;;5052493;28;1379;-67
2022/03/16 11:06:57;;;;;;;;;;;;;;;;;;5053000;28;620;-64
2022/03/16 11:09:23;;;;;;;;;;;;;;;;;;5052705;28;1078;-65
2022/03/16 11:14:35;;;;;;;;;;;;;;;;;;5053028;28;1964;-65
2022/03/16 11:17:01;;;;;;;;;;;;;;;;;;5052412;28;1095;-65
2022/03/16 11:19:27;;;;;;;;;;;;;;;;;;5053193;28;999;-65
2022/03/16 11:21:54;;;;;;;;;;;;;;;;;;5053444;28;1086;-64
2022/03/16 11:24:20;;;;;;;;;;;;;;;;;;5053477;28;1395;-65
2022/03/16 11:26:57;;;;;;;;;;;;;;;;;;5053104;28;933;-65
2022/03/16 11:29:27;;;;;;;;;;;;;;;;;;5053068;28;777;-65
2022/03/16 11:31:54;;;;;;;;;;;;;;;;;;5052307;28;1094;-65
2022/03/16 11:34:21;;;;;;;;;;;;;;;;;;5052578;28;1894;-65
2022/03/16 11:36:50;;;;;;;;;;;;;;;;;;5052877;28;1483;-68
2022/03/16 11:39:17;;;;;;;;;;;;;;;;;;5033432;28;1477;-67
2022/03/16 11:41:49;;;;;;;;;;;;;;;;;;5033830;28;803;-67
2022/03/16 11:44:33;;;;;;;;;;;;;;;;;;5033365;28;1347;-68
2022/03/16 11:47:18;;;;;;;;;;;;;;;;;;5031156;28;1176;-68
2022/03/16 11:49:45;;;;;;;;;;;;;;;;;;5014680;28;945;-68
2022/03/16 11:52:11;;;;;;;;;;;;;;;;;;5014509;28;1357;-67
2022/03/16 11:54:39;;;;;;;;;;;;;;;;;;5032504;28;1975;-67
2022/03/16 11:57:06;;;;;;;;;;;;;;;;;;5032143;28;1142;-67
2022/03/16 11:59:45;;;;;;;;;;;;;;;;;;5032914;28;797;-66
2022/03/16 12:02:13;;;;;;;;;;;;;;;;;;5032393;28;1146;-67
2022/03/16 12:04:40;;;;;;;;;;;;;;;;;;5032672;28;1405;-68
2022/03/16 12:07:07;;;;;;;;;;;;;;;;;;5033839;28;1123;-66
2022/03/16 12:09:38;;;;;;;;;;;;;;;;;;5035031;28;1051;-67
2022/03/16 12:15:00;;;;;;;;;;;;;;;;;;5032453;28;1987;-67
2022/03/16 12:17:26;;;;;;;;;;;;;;;;;;5014818;28;1347;-67
2022/03/16 12:20:12;;;;;;;;;;;;;;;;;;5030956;28;1503;-69
2022/03/16 12:22:44;;;;;;;;;;;;;;;;;;5033800;28;873;-67
2022/03/16 12:25:39;;;;;;;;;;;;;;;;;;5033239;28;1419;-67
2022/03/16 12:30:51;;;;;;;;;;;;;;;;;;5016338;28;866;-67
2022/03/16 12:33:19;;;;;;;;;;;;;;;;;;5016006;28;1902;-68
2022/03/16 12:35:46;;;;;;;;;;;;;;;;;;5033064;28;1330;-67
2022/03/16 12:38:12;;;;;;;;;;;;;;;;;;5033157;28;1075;-67
2022/03/16 12:42:31;;;;;;;;;;;;;;;;;;5030922;28;1167;-66
2022/03/16 12:43:27;;;;;;;;;;;;;;;;;;5032305;28;1202;-66
2022/03/16 12:45:55;;;;;;;;;;;;;;;;;;5032338;28;1377;-66
2022/03/16 12:48:21;;;;;;;;;;;;;;;;;;5032886;28;810;-67
2022/03/16 12:50:47;;;;;;;;;;;;;;;;;;5032994;28;1024;-67
2022/03/16 12:53:13;;;;;;;;;;;;;;;;;;5032741;28;1979;-67
2022/03/16 12:55:53;;;;;;;;;;;;;;;;;;5030696;28;1385;-67
2022/03/16 12:58:23;;;;;;;;;;;;;;;;;;5033201;28;1102;-67
2022/03/16 13:00:58;;;;;;;;;;;;;;;;;;5018286;28;1136;-67
2022/03/16 13:03:25;;;;;;;;;;;;;;;;;;5035497;28;1063;-67
2022/03/16 13:05:52;;;;;;;;;;;;;;;;;;5116270;22;2517;-69
2022/03/16 13:08:18;;;;;;;;;;;;;;;;;;5052519;28;1134;-69
2022/03/16 13:13:28;;;;;;;;;;;;;;;;;;5054078;28;1926;-69
2022/03/16 13:15:56;;;;;;;;;;;;;;;;;;5053734;28;1312;-70
2022/03/16 13:18:31;;;;;;;;;;;;;;;;;;5053438;28;1003;-69
2022/03/16 13:20:57;;;;;;;;;;;;;;;;;;5053824;28;959;-68
2022/03/16 13:23:28;;;;;;;;;;;;;;;;;;5047564;28;1108;-69
2022/03/16 13:26:05;;;;;;;;;;;;;;;;;;5050765;28;1308;-69
2022/03/16 13:28:32;;;;;;;;;;;;;;;;;;5041567;28;1651;-70
2022/03/16 13:30:58;;;;;;;;;;;;;;;;;;5014023;28;1090;-70
2022/03/16 13:33:27;;;;;;;;;;;;;;;;;;5013661;28;1967;-70
2022/03/16 13:36:09;;;;;;;;;;;;;;;;;;5022130;28;1455;-69
2022/03/16 13:38:37;;;;;;;;;;;;;;;;;;5015760;28;920;-70
2022/03/16 13:41:10;;;;;;;;;;;;;;;;;;5033391;28;1087;-70
2022/03/16 13:43:38;;;;;;;;;;;;;;;;;;5033215;28;1027;-70
2022/03/16 13:46:11;;;;;;;;;;;;;;;;;;5033140;28;1389;-69
2022/03/16 13:48:37;;;;;;;;;;;;;;;;;;5033541;28;984;-69
2022/03/16 13:51:05;;;;;;;;;;;;;;;;;;5033255;28;1090;-70
2022/03/16 13:53:40;;;;;;;;;;;;;;;;;;5032894;28;1914;-70
2022/03/16 13:56:11;;;;;;;;;;;;;;;;;;5032849;28;1335;-68
2022/03/16 13:58:38;;;;;;;;;;;;;;;;;;5032926;28;1078;-70
2022/03/16 14:01:05;;;;;;;;;;;;;;;;;;5042131;28;1124;-69
2022/03/16 14:03:31;;;;;;;;;;;;;;;;;;5052439;28;1171;-69
2022/03/16 14:05:57;;;;;;;;;;;;;;;;;;5033185;28;1346;-68
2022/03/16 14:08:24;;;;;;;;;;;;;;;;;;5032738;28;794;-70
2022/03/16 14:10:53;;;;;;;;;;;;;;;;;;5032093;28;1119;-70
2022/03/16 14:13:22;;;;;;;;;;;;;;;;;;5032840;28;1098;-69
2022/03/16 14:15:48;;;;;;;;;;;;;;;;;;5032356;28;1930;-71
2022/03/16 14:18:15;;;;;;;;;;;;;;;;;;5032377;28;964;-69
2022/03/16 14:20:42;;;;;;;;;;;;;;;;;;5032696;28;1119;-70
2022/03/16 14:23:09;;;;;;;;;;;;;;;;;;5032500;28;1314;-70
2022/03/16 14:25:37;;;;;;;;;;;;;;;;;;5032327;28;1311;-71
2022/03/16 14:28:05;;;;;;;;;;;;;;;;;;5032335;28;953;-70
2022/03/16 14:30:33;;;;;;;;;;;;;;;;;;5032308;28;1126;-70
2022/03/16 14:33:00;;;;;;;;;;;;;;;;;;5032517;28;1023;-70
2022/03/16 14:35:26;;;;;;;;;;;;;;;;;;5032067;28;1914;-68
2022/03/16 14:37:54;;;;;;;;;;;;;;;;;;5032241;28;889;-70
2022/03/16 14:40:22;;;;;;;;;;;;;;;;;;5032322;28;1134;-69
2022/03/16 14:42:49;;;;;;;;;;;;;;;;;;5032214;28;1099;-71
2022/03/16 14:45:16;;;;;;;;;;;;;;;;;;5032216;28;1160;-69
2022/03/16 14:47:42;;;;;;;;;;;;;;;;;;5031652;28;1341;-70
2022/03/16 14:50:09;;;;;;;;;;;;;;;;;;5032411;28;1082;-70
2022/03/16 14:52:35;;;;;;;;;;;;;;;;;;5031973;28;916;-67
2022/03/16 14:55:02;;;;;;;;;;;;;;;;;;5033741;28;1914;-70
2022/03/16 14:57:28;;;;;;;;;;;;;;;;;;5051353;28;1435;-67
2022/03/16 14:59:55;;;;;;;;;;;;;;;;;;5051893;28;956;-69
2022/03/16 15:02:23;;;;;;;;;;;;;;;;;;5051968;28;944;-69
2022/03/16 15:04:49;;;;;;;;;;;;;;;;;;5051795;28;969;-69
2022/03/16 15:07:16;;;;;;;;;;;;;;;;;;5051387;28;1305;-69
2022/03/16 15:09:43;;;;;;;;;;;;;;;;;;5051650;28;1067;-70
2022/03/16 15:12:09;;;;;;;;;;;;;;;;;;5033751;28;1156;-70
2022/03/16 15:14:35;;;;;;;;;;;;;;;;;;5051729;28;1930;-69
2022/03/16 15:17:02;;;;;;;;;;;;;;;;;;5051395;28;1336;-69
2022/03/16 15:19:29;;;;;;;;;;;;;;;;;;5051637;28;798;-69
2022/03/16 15:21:57;;;;;;;;;;;;;;;;;;5051444;28;1082;-69
2022/03/16 15:24:23;;;;;;;;;;;;;;;;;;5050803;28;1106;-70
2022/03/16 15:26:49;;;;;;;;;;;;;;;;;;5050434;28;1348;-69
2022/03/16 15:29:16;;;;;;;;;;;;;;;;;;5043631;28;2066;-69
2022/03/16 15:31:42;;;;;;;;;;;;;;;;;;5027453;28;2031;-69
2022/03/16 15:34:08;;;;;;;;;;;;;;;;;;5027743;28;2115;-68
2022/03/16 15:36:36;;;;;;;;;;;;;;;;;;5029817;28;1396;-68
2022/03/16 15:39:02;;;;;;;;;;;;;;;;;;5030918;28;1197;-69
2022/03/16 15:44:12;;;;;;;;;;;;;;;;;;5030867;28;1008;-69
2022/03/16 15:46:38;;;;;;;;;;;;;;;;;;5030408;28;1405;-69
2022/03/16 15:49:05;;;;;;;;;;;;;;;;;;5030740;28;799;-69
2022/03/16 15:51:31;;;;;;;;;;;;;;;;;;5030851;28;1087;-70
2022/03/16 15:53:58;;;;;;;;;;;;;;;;;;5012696;28;1989;-70
2022/03/16 15:56:25;;;;;;;;;;;;;;;;;;5030273;28;1387;-69
2022/03/16 15:58:51;;;;;;;;;;;;;;;;;;5030550;28;771;-69
2022/03/16 16:01:17;;;;;;;;;;;;;;;;;;5030673;28;1076;-69
2022/03/16 16:03:43;;;;;;;;;;;;;;;;;;5030468;28;1146;-69
2022/03/16 16:06:11;;;;;;;;;;;;;;;;;;5029984;28;1316;-69
2022/03/16 16:08:37;;;;;;;;;;;;;;;;;;5031003;28;779;-69
2022/03/16 16:11:11;;;;;;;;;;;;;;;;;;5030677;28;1142;-69
2022/03/16 16:13:38;;;;;;;;;;;;;;;;;;5030520;28;1121;-69
2022/03/16 16:16:05;;;;;;;;;;;;;;;;;;5030653;28;2009;-69
2022/03/16 16:18:32;;;;;;;;;;;;;;;;;;5030369;28;1134;-69
2022/03/16 16:20:58;;;;;;;;;;;;;;;;;;5030246;28;1028;-69
2022/03/16 16:23:24;;;;;;;;;;;;;;;;;;5030382;28;1087;-69
2022/03/16 16:25:51;;;;;;;;;;;;;;;;;;5030158;28;1293;-69
2022/03/16 16:28:19;;;;;;;;;;;;;;;;;;5030119;28;1091;-69
2022/03/16 16:30:45;;;;;;;;;;;;;;;;;;5030305;28;1150;-69
2022/03/16 16:33:11;;;;;;;;;;;;;;;;;;5031094;28;964;-68
2022/03/16 16:35:38;;;;;;;;;;;;;;;;;;5033940;28;1969;-68
2022/03/16 16:38:05;;;;;;;;;;;;;;;;;;5033601;28;953;-68
2022/03/16 16:40:31;;;;;;;;;;;;;;;;;;5033967;28;964;-68
2022/03/16 16:43:16;;;;;;;;;;;;;;;;;;5034012;28;786;-67
2022/03/16 16:45:44;;;;;;;;;;;;;;;;;;5033806;28;1333;-68
2022/03/16 16:48:11;;;;;;;;;;;;;;;;;;5033688;28;1110;-69
2022/03/16 16:50:37;;;;;;;;;;;;;;;;;;5016054;28;1129;-67
2022/03/16 16:53:03;;;;;;;;;;;;;;;;;;5033755;28;841;-68
2022/03/16 16:55:30;;;;;;;;;;;;;;;;;;5033573;28;1988;-67
2022/03/16 16:57:56;;;;;;;;;;;;;;;;;;5033303;28;2103;-68
2022/03/16 17:00:26;;;;;;;;;;;;;;;;;;5033637;28;1091;-68
2022/03/16 17:02:53;;;;;;;;;;;;;;;;;;5033460;28;1028;-69
2022/03/16 17:05:21;;;;;;;;;;;;;;;;;;5033574;28;1114;-68
2022/03/16 17:07:47;;;;;;;;;;;;;;;;;;5032789;28;1429;-68
2022/03/16 17:10:13;;;;;;;;;;;;;;;;;;5033440;28;1133;-68
2022/03/16 17:12:40;;;;;;;;;;;;;;;;;;5033496;28;961;-68
2022/03/16 17:15:06;;;;;;;;;;;;;;;;;;5015397;28;1919;-68
2022/03/16 17:17:33;;;;;;;;;;;;;;;;;;5032705;28;1339;-68
2022/03/16 17:20:01;;;;;;;;;;;;;;;;;;5010935;28;1494;-67
2022/03/16 17:22:27;;;;;;;;;;;;;;;;;;5011607;28;1083;-67
2022/03/16 17:24:53;;;;;;;;;;;;;;;;;;5010102;28;1091;-69
2022/03/16 17:27:19;;;;;;;;;;;;;;;;;;5011156;28;1294;-69
2022/03/16 17:29:47;;;;;;;;;;;;;;;;;;5011386;28;874;-68
2022/03/16 17:32:13;;;;;;;;;;;;;;;;;;5011081;28;1084;-68